Time;durP1;ratioP1;P1;durP2;ratioP2;P2;SDS_P1;SDS_P2;PMS_P1;PMS_P2;Temp;Humidity;BMP_temperature;BMP_pressure;BME280_temperature;BME280_humidity;BME280_pressure;Samples;Min_cycle;Max_cycle;Signal;HPM_P1;HPM_P2
2023/12/01 00:01:41;;;;;;;56.28;23.88;;;;;;;-0.74;100.00;100101.47;6367247;22;19998;-81
2023/12/01 00:04:38;;;;;;;52.25;22.10;;;;;;;-0.62;100.00;100109.84;6367466;22;20014;-81
2023/12/01 00:07:28;;;;;;;52.65;22.73;;;;;;;-0.91;100.00;100076.13;6363105;22;20384;-82
2023/12/01 00:40:59;;;;;;;50.60;21.00;;;;;;;-0.77;100.00;100120.16;6274881;22;20031;-81
2023/12/01 00:43:25;;;;;;;49.17;19.13;;;;;;;-0.65;100.00;100133.81;6247968;22;20400;-83
2023/12/01 00:46:08;;;;;;;49.45;19.63;;;;;;;-0.78;100.00;100112.44;6247683;22;20003;-82
2023/12/01 00:48:34;;;;;;;45.60;18.65;;;;;;;-0.91;100.00;100106.81;6273353;22;20039;-82
2023/12/01 00:51:01;;;;;;;48.00;18.60;;;;;;;-0.74;100.00;100127.72;6274691;22;19999;-82
2023/12/01 00:53:27;;;;;;;51.38;20.80;;;;;;;-0.88;100.00;100111.72;6273280;22;20003;-81
2023/12/01 00:55:54;;;;;;;49.47;19.23;;;;;;;-0.97;100.00;100108.25;6273394;22;20341;-81
2023/12/01 00:58:25;;;;;;;49.05;18.90;;;;;;;-0.81;100.00;100147.69;6247849;22;20053;-80
2023/12/01 01:00:50;;;;;;;53.13;20.05;;;;;;;-0.80;100.00;100151.97;6247982;22;20012;-81
2023/12/01 01:03:16;;;;;;;48.80;21.55;;;;;;;-0.65;100.00;100173.19;6275026;22;20014;-82
2023/12/01 01:05:44;;;;;;;44.75;19.02;;;;;;;-0.86;100.00;100143.91;6273316;22;20007;-83
2023/12/01 01:08:10;;;;;;;49.50;19.23;;;;;;;-0.97;100.00;100116.13;6247603;22;20448;-84
2023/12/01 01:10:35;;;;;;;52.72;21.25;;;;;;;-0.94;100.00;100121.06;6274816;22;20008;-82
2023/12/01 01:13:04;;;;;;;50.38;21.30;;;;;;;-0.64;100.00;100180.88;6274799;22;20464;-83
2023/12/01 01:15:29;;;;;;;46.05;21.10;;;;;;;-0.62;100.00;100186.81;6273234;22;20008;-82
2023/12/01 01:17:54;;;;;;;54.92;22.15;;;;;;;-0.77;100.00;100159.53;6274649;22;20019;-83
2023/12/01 01:20:20;;;;;;;50.13;19.67;;;;;;;-0.61;100.00;100169.25;6274852;22;20004;-83
2023/12/01 01:22:45;;;;;;;58.08;21.25;;;;;;;-0.60;100.00;100170.06;6276011;22;20008;-82
2023/12/01 01:25:10;;;;;;;48.10;19.25;;;;;;;-0.51;100.00;100190.97;6245946;22;20015;-83
2023/12/01 01:27:36;;;;;;;51.20;19.23;;;;;;;-0.53;100.00;100186.84;6247626;22;20429;-82
2023/12/01 01:30:01;;;;;;;46.65;18.83;;;;;;;-0.52;100.00;100178.00;6242694;23;20043;-82
2023/12/01 01:32:26;;;;;;;54.30;22.08;;;;;;;-0.72;100.00;100162.50;6224578;23;20076;-82
2023/12/01 01:34:52;;;;;;;51.40;20.23;;;;;;;-0.67;100.00;100183.00;6239549;23;20039;-81
2023/12/01 01:37:17;;;;;;;49.78;20.63;;;;;;;-0.71;100.00;100181.69;6242467;23;20000;-82
2023/12/01 01:39:42;;;;;;;51.65;23.00;;;;;;;-0.63;100.00;100189.59;6230993;23;20015;-83
2023/12/01 01:42:08;;;;;;;46.53;18.05;;;;;;;-0.69;100.00;100177.09;6265190;22;19999;-81
2023/12/01 01:44:33;;;;;;;50.20;19.05;;;;;;;-0.70;100.00;100194.66;6242468;23;20008;-82
2023/12/01 01:46:59;;;;;;;50.72;19.63;;;;;;;-0.66;100.00;100203.03;6269591;22;20375;-82
2023/12/01 01:49:30;;;;;;;52.13;19.38;;;;;;;-0.73;100.00;100194.16;6242453;23;20035;-81
2023/12/01 01:51:59;;;;;;;52.58;20.13;;;;;;;-0.81;100.00;100191.50;6241968;22;20503;-81
2023/12/01 01:54:28;;;;;;;54.05;21.92;;;;;;;-0.93;100.00;100186.50;6247791;22;20286;-81
2023/12/01 01:56:55;;;;;;;38.22;15.57;;;;;;;-1.07;100.00;100165.28;6242645;22;20008;-82
2023/12/01 01:59:21;;;;;;;53.67;21.60;;;;;;;-0.77;100.00;100212.00;6254816;22;20035;-82
2023/12/01 02:01:52;;;;;;;51.05;20.17;;;;;;;-0.93;100.00;100207.50;6247096;22;20004;-82
2023/12/01 02:04:24;;;;;;;41.90;17.55;;;;;;;-0.93;100.00;100209.28;6273342;22;20087;-83
2023/12/01 02:06:49;;;;;;;47.55;19.48;;;;;;;-1.35;100.00;100159.38;6247626;22;20007;-81
2023/12/01 02:09:15;;;;;;;54.22;20.65;;;;;;;-0.95;100.00;100227.00;6274962;22;20133;-82
2023/12/01 02:11:42;;;;;;;60.95;22.23;;;;;;;-1.02;100.00;100220.72;6243179;23;20008;-81
2023/12/01 02:14:07;;;;;;;51.00;19.83;;;;;;;-1.05;100.00;100224.47;6242624;23;20450;-81
2023/12/01 02:16:33;;;;;;;52.10;19.20;;;;;;;-1.02;100.00;100229.41;6241837;22;20031;-81
2023/12/01 02:18:58;;;;;;;56.47;22.25;;;;;;;-1.03;100.00;100233.03;6274549;22;20035;-81
2023/12/01 02:21:24;;;;;;;51.67;19.50;;;;;;;-1.07;100.00;100231.69;6274582;22;20101;-81
2023/12/01 02:23:56;;;;;;;60.92;22.10;;;;;;;-1.16;100.00;100216.84;6247702;22;20003;-83
2023/12/01 02:26:24;;;;;;;47.67;16.88;;;;;;;-1.12;100.00;100207.72;6242502;23;20491;-83
2023/12/01 02:28:50;;;;;;;58.53;22.80;;;;;;;-1.18;100.00;100216.19;6257930;22;20007;-83
2023/12/01 02:31:15;;;;;;;54.40;19.73;;;;;;;-1.19;100.00;100211.09;6242454;23;20164;-83
2023/12/01 02:33:41;;;;;;;60.78;21.00;;;;;;;-1.05;100.00;100228.91;6262259;22;20302;-83
2023/12/01 02:36:08;;;;;;;54.78;20.98;;;;;;;-1.10;100.00;100218.88;6274612;22;20007;-83
2023/12/01 02:38:35;;;;;;;53.55;20.27;;;;;;;-1.12;100.00;100227.88;6274599;22;20004;-82
2023/12/01 02:41:02;;;;;;;51.42;20.23;;;;;;;-1.07;100.00;100236.94;6247478;22;20008;-84
2023/12/01 02:43:28;;;;;;;53.53;19.50;;;;;;;-1.04;100.00;100239.25;6274635;22;19999;-83
2023/12/01 02:45:54;;;;;;;54.22;21.13;;;;;;;-1.03;100.00;100227.78;6244469;22;20046;-83
2023/12/01 02:48:19;;;;;;;51.72;18.05;;;;;;;-1.04;100.00;100218.25;6274728;22;20852;-83
2023/12/01 02:50:45;;;;;;;53.08;20.45;;;;;;;-0.97;100.00;100221.06;6274468;22;20905;-83
2023/12/01 02:53:11;;;;;;;41.53;17.33;;;;;;;-1.07;100.00;100209.88;6274470;22;20008;-83
2023/12/01 02:55:36;;;;;;;45.92;18.80;;;;;;;-0.93;100.00;100228.47;6274353;22;20011;-83
2023/12/01 02:58:02;;;;;;;50.85;18.85;;;;;;;-0.89;100.00;100222.91;6274389;22;20007;-82
2023/12/01 03:00:28;;;;;;;50.45;19.48;;;;;;;-1.02;100.00;100223.34;6247380;22;20000;-83
2023/12/01 03:02:58;;;;;;;56.15;18.42;;;;;;;-0.99;100.00;100217.78;6274330;22;20088;-83
2023/12/01 03:05:27;;;;;;;61.33;20.90;;;;;;;-1.06;100.00;100211.53;6263148;22;20011;-83
2023/12/01 03:07:53;;;;;;;60.28;20.27;;;;;;;-1.01;100.00;100212.69;6274388;22;20012;-83
2023/12/01 03:10:19;;;;;;;54.58;20.55;;;;;;;-0.94;100.00;100224.22;6275060;22;20003;-83
2023/12/01 03:12:44;;;;;;;59.05;20.63;;;;;;;-0.94;100.00;100229.47;6274029;22;20421;-82
2023/12/01 03:15:17;;;;;;;46.22;17.42;;;;;;;-0.96;100.00;100228.78;6274244;22;20375;-81
2023/12/01 03:17:43;;;;;;;46.50;17.00;;;;;;;-0.88;100.00;100229.81;6274094;22;20020;-81
2023/12/01 03:20:11;;;;;;;46.80;18.45;;;;;;;-0.97;100.00;100227.16;6273808;22;20000;-82
2023/12/01 03:22:38;;;;;;;59.83;20.25;;;;;;;-1.04;100.00;100227.94;6274090;22;20010;-82
2023/12/01 03:25:09;;;;;;;65.13;22.65;;;;;;;-1.11;100.00;100230.34;6274467;22;20007;-80
2023/12/01 03:27:36;;;;;;;69.20;24.83;;;;;;;-1.19;100.00;100232.06;6274251;22;20038;-81
2023/12/01 03:30:01;;;;;;;69.88;22.40;;;;;;;-1.33;100.00;100215.94;6274255;22;20010;-81
2023/12/01 03:32:27;;;;;;;68.30;21.70;;;;;;;-1.23;100.00;100233.34;6274104;22;20019;-82
2023/12/01 03:34:52;;;;;;;73.38;23.45;;;;;;;-1.27;100.00;100223.19;6273993;22;20399;-82
2023/12/01 03:37:17;;;;;;;69.22;25.00;;;;;;;-1.28;100.00;100226.78;6274091;22;20004;-81
2023/12/01 03:39:43;;;;;;;77.57;27.42;;;;;;;-1.23;100.00;100236.81;6273942;22;20058;-81
2023/12/01 03:42:09;;;;;;;74.78;23.05;;;;;;;-1.22;100.00;100241.06;6246794;22;20031;-82
2023/12/01 03:44:34;;;;;;;67.28;24.50;;;;;;;-1.26;100.00;100243.19;6274600;22;20035;-82
2023/12/01 03:47:00;;;;;;;82.32;27.90;;;;;;;-1.28;100.00;100241.69;6273997;22;20010;-82
2023/12/01 03:49:25;;;;;;;78.13;24.70;;;;;;;-1.33;100.00;100236.91;6273976;22;20008;-82
2023/12/01 03:51:52;;;;;;;87.88;26.92;;;;;;;-1.40;100.00;100224.56;6273960;22;20022;-82
2023/12/01 03:54:18;;;;;;;70.15;21.52;;;;;;;-1.32;100.00;100235.09;6273880;22;20033;-83
2023/12/01 03:56:43;;;;;;;65.47;22.48;;;;;;;-1.35;100.00;100230.16;6241582;23;20028;-82
2023/12/01 03:59:09;;;;;;;79.85;23.88;;;;;;;-1.33;100.00;100241.31;6260774;22;19999;-81
2023/12/01 04:01:39;;;;;;;78.28;24.45;;;;;;;-1.30;100.00;100252.34;6273893;22;20083;-82
2023/12/01 04:04:05;;;;;;;83.05;23.63;;;;;;;-1.29;100.00;100253.97;6241555;23;20429;-81
2023/12/01 04:06:32;;;;;;;67.25;22.02;;;;;;;-1.29;100.00;100259.22;6268433;22;20004;-81
2023/12/01 04:09:00;;;;;;;69.68;23.30;;;;;;;-1.27;100.00;100269.56;6273749;22;20003;-82
2023/12/01 04:11:25;;;;;;;52.60;16.77;;;;;;;-1.32;100.00;100256.09;6243308;22;20548;-81
2023/12/01 04:13:50;;;;;;;56.83;18.92;;;;;;;-1.33;100.00;100257.88;6273932;22;20018;-82
2023/12/01 04:16:15;;;;;;;59.22;19.00;;;;;;;-1.32;100.00;100266.56;6273768;22;20064;-81
2023/12/01 04:18:45;;;;;;;61.53;19.83;;;;;;;-1.36;100.00;100270.47;6241205;23;20430;-82
2023/12/01 04:21:10;;;;;;;64.50;21.00;;;;;;;-1.35;100.00;100269.50;6254421;22;20012;-82
2023/12/01 04:23:35;;;;;;;63.80;19.40;;;;;;;-1.37;100.00;100274.91;6273616;22;20375;-82
2023/12/01 04:26:02;;;;;;;71.13;21.42;;;;;;;-1.44;100.00;100262.56;6274811;22;20008;-82
2023/12/01 04:28:27;;;;;;;61.30;19.23;;;;;;;-1.35;100.00;100286.06;6275204;22;20486;-82
2023/12/01 04:30:52;;;;;;;67.88;21.35;;;;;;;-1.41;100.00;100270.94;6275099;22;20004;-81
2023/12/01 04:33:18;;;;;;;62.67;21.08;;;;;;;-1.44;100.00;100276.47;6275140;22;19999;-81
2023/12/01 04:35:43;;;;;;;60.17;19.88;;;;;;;-1.41;100.00;100284.03;6275021;22;20057;-81
2023/12/01 04:38:09;;;;;;;74.15;21.88;;;;;;;-1.34;100.00;100292.13;6274935;22;20050;-81
2023/12/01 04:40:36;;;;;;;60.45;20.23;;;;;;;-1.33;100.00;100293.78;6247699;22;20011;-82
2023/12/01 04:43:03;;;;;;;67.40;20.58;;;;;;;-1.36;100.00;100287.03;6275083;22;20031;-82
2023/12/01 04:45:35;;;;;;;70.20;21.55;;;;;;;-1.32;100.00;100290.16;6247958;22;20428;-83
2023/12/01 04:48:01;;;;;;;79.50;23.10;;;;;;;-1.33;100.00;100280.66;6275161;22;20004;-83
2023/12/01 04:50:30;;;;;;;66.88;22.08;;;;;;;-1.34;100.00;100292.13;6242675;23;20008;-83
2023/12/01 04:52:57;;;;;;;72.30;20.42;;;;;;;-1.32;100.00;100298.03;6259015;22;20000;-83
2023/12/01 04:55:27;;;;;;;69.55;23.00;;;;;;;-1.36;100.00;100286.22;6275064;22;20004;-83
2023/12/01 04:57:58;;;;;;;73.03;22.00;;;;;;;-1.31;100.00;100299.69;6242809;23;20004;-83
2023/12/01 05:00:25;;;;;;;66.75;21.58;;;;;;;-1.31;100.00;100303.13;6267972;22;20074;-84
2023/12/01 05:03:07;;;;;;;69.82;21.45;;;;;;;-1.25;100.00;100312.19;6242858;23;20409;-83
2023/12/01 05:05:37;;;;;;;76.65;23.02;;;;;;;-1.21;100.00;100316.16;6275042;22;20007;-82
2023/12/01 05:08:08;;;;;;;63.83;21.05;;;;;;;-1.20;100.00;100311.72;6274982;22;20004;-82
2023/12/01 05:10:35;;;;;;;70.43;22.48;;;;;;;-1.19;100.00;100319.44;6274898;22;20061;-82
2023/12/01 05:13:03;;;;;;;89.88;26.25;;;;;;;-1.20;100.00;100327.47;6274721;22;20014;-82
2023/12/01 05:15:30;;;;;;;89.95;28.33;;;;;;;-1.21;100.00;100323.19;6274818;22;20004;-81
2023/12/01 05:17:59;;;;;;;64.88;21.92;;;;;;;-1.15;100.00;100322.63;6276075;22;20011;-81
2023/12/01 05:20:27;;;;;;;81.00;24.35;;;;;;;-1.17;100.00;100322.75;6278708;22;20000;-81
2023/12/01 05:23:09;;;;;;;71.10;23.95;;;;;;;-1.17;100.00;100319.28;6246418;23;20441;-80
2023/12/01 05:25:36;;;;;;;90.20;24.75;;;;;;;-1.17;100.00;100319.28;6249174;22;20014;-79
2023/12/01 05:28:03;;;;;;;70.40;22.58;;;;;;;-1.13;100.00;100323.28;6273194;22;20086;-81
2023/12/01 05:30:31;;;;;;;81.03;24.83;;;;;;;-1.05;100.00;100334.66;6275385;22;20058;-81
2023/12/01 05:33:09;;;;;;;80.75;24.58;;;;;;;-1.05;100.00;100328.59;6277026;22;20062;-80
2023/12/01 05:35:36;;;;;;;80.72;26.38;;;;;;;-1.00;100.00;100344.69;6250513;22;20082;-81
2023/12/01 05:38:04;;;;;;;76.72;27.23;;;;;;;-1.04;100.00;100344.19;6249474;22;20018;-80
2023/12/01 05:40:34;;;;;;;73.32;26.63;;;;;;;-1.09;100.00;100343.81;6276458;22;20004;-80
2023/12/01 05:43:00;;;;;;;83.65;30.00;;;;;;;-1.18;100.00;100338.63;6249270;22;20004;-80
2023/12/01 05:45:27;;;;;;;63.33;24.83;;;;;;;-1.21;100.00;100342.38;6276566;22;20383;-80
2023/12/01 05:47:54;;;;;;;67.35;25.80;;;;;;;-1.21;100.00;100352.88;6276446;22;20014;-80
2023/12/01 05:50:24;;;;;;;64.93;25.13;;;;;;;-1.31;100.00;100341.63;6276448;22;20036;-80
2023/12/01 05:52:52;;;;;;;59.60;24.25;;;;;;;-1.27;100.00;100348.22;6247528;22;20004;-80
2023/12/01 05:55:20;;;;;;;54.40;22.25;;;;;;;-1.23;100.00;100357.44;6249163;22;20015;-80
2023/12/01 05:57:50;;;;;;;61.90;23.02;;;;;;;-1.21;100.00;100352.03;6276011;22;20014;-80
2023/12/01 06:00:17;;;;;;;63.05;24.75;;;;;;;-1.28;100.00;100346.59;6275528;22;20083;-80
2023/12/01 06:02:48;;;;;;;63.78;21.55;;;;;;;-1.25;100.00;100341.03;6275856;22;20429;-80
2023/12/01 06:05:15;;;;;;;61.83;21.80;;;;;;;-1.15;100.00;100354.91;6275804;22;20012;-81
2023/12/01 06:07:43;;;;;;;61.95;24.95;;;;;;;-1.13;100.00;100362.63;6275472;22;20031;-80
2023/12/01 06:10:09;;;;;;;61.85;26.23;;;;;;;-1.13;100.00;100360.84;6248806;22;20011;-80
2023/12/01 06:12:37;;;;;;;57.17;24.65;;;;;;;-1.16;100.00;100361.09;6275259;22;20023;-80
2023/12/01 06:15:05;;;;;;;61.90;23.17;;;;;;;-1.19;100.00;100357.97;6242369;23;20004;-79
2023/12/01 06:17:31;;;;;;;60.90;23.08;;;;;;;-1.22;100.00;100351.22;6242287;22;20409;-81
2023/12/01 06:19:56;;;;;;;55.55;21.30;;;;;;;-1.13;100.00;100363.47;6275797;22;20007;-80
2023/12/01 06:22:22;;;;;;;58.90;23.90;;;;;;;-1.15;100.00;100354.09;6274609;22;20078;-81
2023/12/01 06:24:47;;;;;;;57.35;21.33;;;;;;;-1.21;100.00;100363.34;6274669;22;20379;-81
2023/12/01 06:27:13;;;;;;;53.83;22.77;;;;;;;-1.28;100.00;100357.06;6247844;22;20057;-81
2023/12/01 06:29:38;;;;;;;55.28;23.40;;;;;;;-1.23;100.00;100372.34;6247725;22;20352;-81
2023/12/01 06:32:04;;;;;;;50.10;20.42;;;;;;;-1.27;100.00;100358.72;6275253;22;20030;-82
2023/12/01 06:34:29;;;;;;;58.45;22.77;;;;;;;-1.16;100.00;100370.78;6247660;22;20446;-86
2023/12/01 06:36:58;;;;;;;47.88;18.80;;;;;;;-1.25;100.00;100364.63;6274637;22;20070;-84
2023/12/01 06:39:25;;;;;;;59.38;22.67;;;;;;;-1.37;100.00;100342.25;6247647;22;20010;-84
2023/12/01 06:41:52;;;;;;;42.45;18.60;;;;;;;-1.21;100.00;100371.22;6274875;22;20004;-82
2023/12/01 06:44:17;;;;;;;53.08;21.52;;;;;;;-1.26;100.00;100363.81;6242707;23;20008;-82
2023/12/01 06:46:42;;;;;;;54.58;21.50;;;;;;;-1.21;100.00;100379.09;6244073;22;20011;-80
2023/12/01 06:49:08;;;;;;;51.90;21.60;;;;;;;-1.22;100.00;100369.56;6274131;22;20011;-84
2023/12/01 06:51:33;;;;;;;53.17;20.35;;;;;;;-1.22;100.00;100366.94;6274257;22;20019;-81
2023/12/01 06:53:58;;;;;;;54.08;22.50;;;;;;;-1.22;100.00;100368.75;6274556;22;20050;-87
2023/12/01 06:56:24;;;;;;;52.42;21.05;;;;;;;-1.24;100.00;100358.41;6274845;22;20061;-87
2023/12/01 06:58:49;;;;;;;50.92;19.83;;;;;;;-1.14;100.00;100380.16;6274281;22;20007;-85
2023/12/01 07:01:18;;;;;;;56.60;20.65;;;;;;;-1.07;100.00;100388.25;6274279;22;20011;-84
2023/12/01 07:03:47;;;;;;;55.25;21.52;;;;;;;-1.12;100.00;100380.00;6247442;22;20337;-84
2023/12/01 07:06:13;;;;;;;51.05;20.38;;;;;;;-1.06;100.00;100387.28;6247034;22;20063;-86
2023/12/01 07:08:39;;;;;;;52.13;20.17;;;;;;;-1.07;100.00;100378.59;6247028;22;20015;-85
2023/12/01 07:11:06;;;;;;;52.70;20.75;;;;;;;-1.03;100.00;100386.97;6274773;22;20306;-85
2023/12/01 07:13:31;;;;;;;53.15;20.45;;;;;;;-1.06;100.00;100380.22;6274539;22;20369;-84
2023/12/01 07:15:57;;;;;;;50.35;19.35;;;;;;;-1.04;100.00;100391.41;6247301;22;20011;-85
2023/12/01 07:18:23;;;;;;;53.40;20.33;;;;;;;-1.01;100.00;100392.91;6274003;22;20066;-82
2023/12/01 07:20:48;;;;;;;55.33;19.55;;;;;;;-0.98;100.00;100398.66;6247337;22;20037;-82
2023/12/01 07:23:14;;;;;;;52.75;20.30;;;;;;;-0.91;100.00;100408.56;6274227;22;20004;-79
2023/12/01 07:25:40;;;;;;;63.15;21.15;;;;;;;-0.94;100.00;100404.44;6246868;22;20008;-83
2023/12/01 07:28:08;;;;;;;51.33;18.98;;;;;;;-0.89;100.00;100407.41;6247123;22;20014;-82
2023/12/01 07:30:33;;;;;;;48.63;20.35;;;;;;;-0.88;100.00;100414.31;6241830;23;20000;-79
2023/12/01 07:33:01;;;;;;;53.90;20.50;;;;;;;-0.90;100.00;100400.53;6261060;22;20053;-79
2023/12/01 07:35:27;;;;;;;52.20;20.67;;;;;;;-0.93;100.00;100406.91;6274060;22;20014;-79
2023/12/01 07:37:53;;;;;;;56.83;23.30;;;;;;;-0.82;100.00;100410.28;6273927;22;20388;-80
2023/12/01 07:40:23;;;;;;;51.92;19.40;;;;;;;-0.82;100.00;100402.41;6246876;22;20061;-80
2023/12/01 07:42:54;;;;;;;53.53;21.55;;;;;;;-0.81;100.00;100410.13;6241826;23;20004;-82
2023/12/01 07:45:19;;;;;;;53.42;20.95;;;;;;;-0.79;100.00;100413.44;6271644;22;20432;-84
2023/12/01 07:47:46;;;;;;;45.53;19.90;;;;;;;-0.77;100.00;100410.66;6246787;22;20042;-85
2023/12/01 07:50:14;;;;;;;56.00;23.90;;;;;;;-0.75;100.00;100408.69;6246743;22;20061;-80
2023/12/01 07:52:43;;;;;;;58.47;20.10;;;;;;;-0.75;100.00;100406.06;6242055;23;20004;-80
2023/12/01 07:55:09;;;;;;;48.22;19.85;;;;;;;-0.81;100.00;100401.44;6256883;22;20027;-80
2023/12/01 07:57:35;;;;;;;52.30;19.60;;;;;;;-0.74;100.00;100403.31;6246610;22;20031;-80
2023/12/01 08:00:01;;;;;;;58.95;22.70;;;;;;;-0.73;100.00;100406.75;6247266;22;20011;-79
2023/12/01 08:02:27;;;;;;;55.40;20.83;;;;;;;-0.69;100.00;100405.47;6247948;22;20019;-80
2023/12/01 08:04:52;;;;;;;54.40;21.38;;;;;;;-0.67;100.00;100403.50;6243123;23;20008;-80
2023/12/01 08:07:17;;;;;;;54.72;22.08;;;;;;;-0.70;100.00;100395.94;6243099;23;20336;-81
2023/12/01 08:09:43;;;;;;;53.30;21.08;;;;;;;-0.64;100.00;100397.94;6242975;23;20000;-80
2023/12/01 08:12:08;;;;;;;53.58;20.77;;;;;;;-0.61;100.00;100410.78;6273550;22;20030;-80
2023/12/01 08:14:33;;;;;;;46.90;19.85;;;;;;;-0.64;100.00;100400.56;6275201;22;20016;-80
2023/12/01 08:16:59;;;;;;;51.92;20.00;;;;;;;-0.56;100.00;100411.16;6247864;22;20035;-80
2023/12/01 08:19:24;;;;;;;58.80;22.60;;;;;;;-0.56;100.00;100413.78;6246585;22;20004;-80
2023/12/01 08:21:50;;;;;;;52.50;20.67;;;;;;;-0.53;100.00;100410.84;6242833;23;20008;-80
2023/12/01 08:24:18;;;;;;;63.28;22.55;;;;;;;-0.50;100.00;100422.84;6249270;22;20383;-81
2023/12/01 08:26:43;;;;;;;55.38;20.50;;;;;;;-0.48;100.00;100419.09;6242986;23;20032;-81
2023/12/01 08:29:09;;;;;;;54.70;21.65;;;;;;;-0.48;100.00;100416.47;6261332;22;20026;-81
2023/12/01 08:31:35;;;;;;;56.97;21.02;;;;;;;-0.45;100.00;100420.59;6275264;22;20490;-81
2023/12/01 08:34:01;;;;;;;48.55;20.88;;;;;;;-0.38;100.00;100427.69;6275251;22;20302;-81
2023/12/01 08:36:26;;;;;;;46.65;18.75;;;;;;;-0.46;100.00;100422.38;6274980;22;20046;-81
2023/12/01 08:38:52;;;;;;;41.38;16.17;;;;;;;-0.33;100.00;100435.09;6274888;22;20004;-81
2023/12/01 08:41:18;;;;;;;37.75;15.95;;;;;;;-0.30;100.00;100434.78;6274902;22;20387;-79
2023/12/01 08:43:43;;;;;;;37.58;15.98;;;;;;;-0.42;100.00;100420.28;6244298;22;20095;-79
2023/12/01 08:46:08;;;;;;;43.33;17.30;;;;;;;-0.36;100.00;100436.25;6248000;22;20014;-80
2023/12/01 08:48:34;;;;;;;32.10;14.27;;;;;;;-0.40;100.00;100429.66;6274943;22;20098;-80
2023/12/01 08:51:00;;;;;;;31.60;12.68;;;;;;;-0.29;100.00;100446.13;6247876;22;20008;-81
2023/12/01 08:53:25;;;;;;;38.30;15.52;;;;;;;-0.27;100.00;100441.56;6274846;22;20030;-79
2023/12/01 08:55:50;;;;;;;35.78;13.73;;;;;;;-0.27;100.00;100445.03;6274998;22;20325;-81
2023/12/01 08:58:17;;;;;;;30.08;13.02;;;;;;;-0.33;100.00;100429.84;6247957;22;20568;-80
2023/12/01 09:00:43;;;;;;;28.00;12.98;;;;;;;-0.27;100.00;100441.56;6274931;22;20000;-80
2023/12/01 09:03:08;;;;;;;31.02;12.48;;;;;;;-0.21;100.00;100443.56;6247794;22;20015;-80
2023/12/01 09:05:34;;;;;;;28.45;12.48;;;;;;;-0.28;100.00;100427.59;6274966;22;20025;-82
2023/12/01 09:08:04;;;;;;;31.08;13.18;;;;;;;-0.19;100.00;100446.88;6274896;22;20061;-80
2023/12/01 09:10:29;;;;;;;30.10;13.55;;;;;;;-0.14;100.00;100460.38;6274809;22;20004;-78
2023/12/01 09:12:54;;;;;;;25.75;12.32;;;;;;;-0.18;100.00;100448.50;6243097;22;20388;-80
2023/12/01 09:15:20;;;;;;;26.45;11.45;;;;;;;-0.17;100.00;100451.00;6247936;22;20004;-80
2023/12/01 09:17:45;;;;;;;30.67;13.10;;;;;;;-0.17;100.00;100444.91;6247379;22;20067;-81
2023/12/01 09:20:11;;;;;;;33.75;13.30;;;;;;;-0.20;100.00;100445.22;6274699;22;20010;-81
2023/12/01 09:22:36;;;;;;;30.80;13.65;;;;;;;-0.10;100.00;100459.91;6242532;23;20091;-81
2023/12/01 09:25:02;;;;;;;32.75;14.60;;;;;;;-0.06;100.00;100468.28;6255749;22;20356;-83
2023/12/01 09:27:28;;;;;;;24.65;12.25;;;;;;;-0.09;100.00;100458.91;6247821;22;20012;-83
2023/12/01 09:29:53;;;;;;;30.00;12.60;;;;;;;0.02;100.00;100472.78;6242874;23;20011;-82
2023/12/01 09:32:19;;;;;;;32.42;13.85;;;;;;;0.03;100.00;100475.25;6230215;23;20038;-84
2023/12/01 09:34:44;;;;;;;27.25;13.13;;;;;;;0.02;100.00;100473.63;6239473;23;20003;-84
2023/12/01 09:37:10;;;;;;;31.17;14.38;;;;;;;0.06;100.00;100479.38;6266620;22;20014;-88
2023/12/01 09:39:35;;;;;;;28.50;13.07;;;;;;;0.02;100.00;100471.00;6247844;22;20004;-83
2023/12/01 09:42:08;;;;;;;27.70;14.57;;;;;;;-0.01;100.00;100466.00;6247677;22;20033;-85
2023/12/01 09:44:35;;;;;;;27.67;13.82;;;;;;;0.02;100.00;100472.78;6247791;22;20004;-84
2023/12/01 09:47:02;;;;;;;29.45;14.05;;;;;;;0.06;100.00;100492.53;6247691;22;20015;-84
2023/12/01 09:49:34;;;;;;;25.98;12.85;;;;;;;0.08;100.00;100486.13;6274713;22;19999;-82
2023/12/01 09:52:02;;;;;;;26.20;12.13;;;;;;;0.16;100.00;100486.16;6274948;22;20012;-83
2023/12/01 09:54:28;;;;;;;23.83;13.02;;;;;;;0.08;100.00;100473.00;6274868;22;20004;-83
2023/12/01 09:56:57;;;;;;;28.52;13.82;;;;;;;0.21;100.00;100496.22;6274674;22;20388;-83
2023/12/01 09:59:22;;;;;;;26.73;12.57;;;;;;;0.23;100.00;100489.00;6274871;22;20000;-83
2023/12/01 10:01:48;;;;;;;26.48;12.18;;;;;;;0.24;100.00;100493.28;6274606;22;20018;-82
2023/12/01 10:04:14;;;;;;;26.70;12.90;;;;;;;0.26;100.00;100484.25;6274496;22;20015;-82
2023/12/01 10:06:40;;;;;;;28.02;11.70;;;;;;;0.34;100.00;100495.81;6242478;23;20008;-82
2023/12/01 10:09:10;;;;;;;24.23;11.90;;;;;;;0.32;100.00;100497.78;6272113;22;20037;-83
2023/12/01 10:11:36;;;;;;;25.85;12.60;;;;;;;0.27;100.00;100485.06;6275497;22;20435;-83
2023/12/01 10:14:08;;;;;;;26.65;13.82;;;;;;;0.27;100.00;100491.16;6275018;22;20061;-84
2023/12/01 10:16:35;;;;;;;25.75;11.45;;;;;;;0.33;100.00;100491.53;6274964;22;20040;-85
2023/12/01 10:19:04;;;;;;;26.10;11.10;;;;;;;0.39;100.00;100496.16;6241573;23;20032;-84
2023/12/01 10:21:56;;;;;;;27.75;12.50;;;;;;;0.36;100.00;100491.22;6225304;23;20004;-83
2023/12/01 10:24:22;;;;;;;27.60;11.98;;;;;;;0.37;100.00;100500.75;6236608;22;20012;-84
2023/12/01 10:26:52;;;;;;;23.33;11.70;;;;;;;0.24;100.00;100491.47;6267923;22;20375;-83
2023/12/01 10:29:31;;;;;;;23.98;12.80;;;;;;;0.20;100.00;100500.66;6273806;22;20349;-83
2023/12/01 10:32:02;;;;;;;25.17;12.95;;;;;;;0.15;100.00;100502.94;6274877;22;20003;-81
2023/12/01 10:34:28;;;;;;;31.17;14.15;;;;;;;0.14;100.00;100501.28;6274618;22;20086;-81
2023/12/01 10:36:54;;;;;;;24.45;11.70;;;;;;;0.20;100.00;100499.81;6247380;22;20070;-80
2023/12/01 10:39:30;;;;;;;25.20;12.50;;;;;;;0.26;100.00;100504.44;6242252;23;20333;-81
2023/12/01 10:41:59;;;;;;;26.38;12.68;;;;;;;0.23;100.00;100499.50;6227989;23;20015;-78
2023/12/01 10:44:26;;;;;;;22.40;10.80;;;;;;;0.25;100.00;100495.75;6241826;22;20018;-80
2023/12/01 10:46:53;;;;;;;28.25;12.65;;;;;;;0.32;100.00;100506.50;6265526;22;20125;-81
2023/12/01 10:49:20;;;;;;;25.52;11.73;;;;;;;0.32;100.00;100501.22;6242281;23;20015;-82
2023/12/01 10:51:52;;;;;;;28.00;13.13;;;;;;;0.34;100.00;100503.69;6270292;22;20026;-81
2023/12/01 10:54:21;;;;;;;25.13;13.00;;;;;;;0.30;100.00;100496.13;6274512;22;20437;-81
2023/12/01 10:57:02;;;;;;;23.70;11.10;;;;;;;0.27;100.00;100501.66;6274338;22;20342;-82
2023/12/01 10:59:28;;;;;;;24.95;11.55;;;;;;;0.18;100.00;100489.47;6242129;23;20091;-81
2023/12/01 11:01:55;;;;;;;26.20;11.90;;;;;;;0.20;100.00;100492.75;6224006;23;20399;-81
2023/12/01 11:04:27;;;;;;;28.35;12.93;;;;;;;0.20;100.00;100498.03;6242232;23;20089;-81
2023/12/01 11:06:59;;;;;;;24.63;13.00;;;;;;;0.21;100.00;100490.97;6262403;22;20022;-81
2023/12/01 11:09:35;;;;;;;26.20;13.13;;;;;;;0.21;100.00;100489.16;6242244;23;20004;-81
2023/12/01 11:12:30;;;;;;;29.60;13.32;;;;;;;0.27;100.00;100482.44;6238098;23;20004;-81
2023/12/01 11:15:03;;;;;;;27.42;13.00;;;;;;;0.25;100.00;100482.59;6219079;22;20012;-80
2023/12/01 11:17:28;;;;;;;;;;;;;;;0.29;100.00;100481.34;6274565;22;20008;-81
2023/12/01 11:19:53;;;;;;;20.40;10.05;;;;;;;0.26;100.00;100479.00;6246782;22;19911;-79
2023/12/01 11:22:29;;;;;;;26.42;11.98;;;;;;;0.20;100.00;100490.13;6274236;22;20004;-81
2023/12/01 11:24:56;;;;;;;26.83;12.48;;;;;;;0.13;100.00;100483.84;6246968;22;20014;-79
2023/12/01 11:27:23;;;;;;;25.55;14.35;;;;;;;0.18;100.00;100497.34;6247117;22;20310;-83
2023/12/01 11:30:07;;;;;;;27.98;13.15;;;;;;;0.21;100.00;100496.22;6274004;22;20035;-81
2023/12/01 11:32:38;;;;;;;22.25;10.23;;;;;;;0.26;100.00;100492.13;6274059;22;20046;-81
2023/12/01 11:35:07;;;;;;;28.27;12.57;;;;;;;0.26;100.00;100486.88;6247301;22;20440;-81
2023/12/01 11:37:56;;;;;;;27.17;13.45;;;;;;;0.33;100.00;100499.41;6247753;22;20451;-82